Time;durP1;ratioP1;P1;durP2;ratioP2;P2;SDS_P1;SDS_P2;PMS_P1;PMS_P2;Temp;Humidity;BMP_temperature;BMP_pressure;BME280_temperature;BME280_humidity;BME280_pressure;Samples;Min_cycle;Max_cycle;Signal;HPM_P1;HPM_P2
2022/05/12 00:00:30;;;;;;;7.60;2.40;;;;;;;16.33;59.60;101302.09;5117198;28;20061;-62
2022/05/12 00:02:56;;;;;;;7.72;2.40;;;;;;;16.34;59.39;101305.66;5116859;28;20465;-62
2022/05/12 00:05:22;;;;;;;7.72;2.50;;;;;;;16.30;59.32;101306.56;5116941;28;20069;-62
2022/05/12 00:07:48;;;;;;;9.95;2.65;;;;;;;16.26;59.76;101308.34;5117110;28;20051;-61
2022/05/12 00:10:17;;;;;;;9.20;2.45;;;;;;;16.14;59.85;101311.06;5117007;28;20098;-61
2022/05/12 00:12:43;;;;;;;6.97;2.17;;;;;;;16.14;59.70;101309.28;5117049;28;20020;-61
2022/05/12 00:15:16;;;;;;;7.85;2.72;;;;;;;16.07;60.00;101312.00;5116907;28;20032;-61
2022/05/12 00:17:44;;;;;;;8.82;2.53;;;;;;;16.05;59.76;101317.31;5116699;28;20027;-61
2022/05/12 00:20:11;;;;;;;6.05;2.30;;;;;;;16.00;59.48;101313.81;5116691;28;20023;-61
2022/05/12 00:22:36;;;;;;;8.98;2.50;;;;;;;15.98;59.98;101315.59;5116672;28;20034;-61
2022/05/12 00:25:02;;;;;;;5.95;2.03;;;;;;;15.94;59.66;101322.72;5116657;28;20019;-61
2022/05/12 00:27:27;;;;;;;5.40;1.98;;;;;;;15.76;59.77;101317.47;5116603;28;20027;-61
2022/05/12 00:29:53;;;;;;;6.40;2.13;;;;;;;15.66;60.07;101327.22;5116600;28;20027;-62
2022/05/12 00:32:18;;;;;;;7.22;2.30;;;;;;;15.71;60.32;101336.09;5116439;28;20062;-61
2022/05/12 00:34:43;;;;;;;8.52;2.38;;;;;;;15.77;60.32;101330.75;5116419;28;20034;-62
2022/05/12 00:37:09;;;;;;;7.13;2.08;;;;;;;15.74;59.63;101333.44;5116621;28;20054;-62
2022/05/12 00:39:35;;;;;;;7.70;2.28;;;;;;;15.66;59.93;101329.00;5116403;28;20358;-61
2022/05/12 00:42:00;;;;;;;5.85;2.17;;;;;;;15.63;59.96;101345.88;5116243;28;20050;-61
2022/05/12 00:44:25;;;;;;;6.57;2.10;;;;;;;15.66;59.60;101347.66;5116200;28;20034;-62
2022/05/12 00:46:52;;;;;;;8.23;2.20;;;;;;;15.60;60.06;101350.31;5116262;28;20391;-61
2022/05/12 00:49:28;;;;;;;6.97;2.22;;;;;;;15.57;59.59;101347.66;5116377;28;20041;-61
2022/05/12 00:52:08;;;;;;;6.32;2.30;;;;;;;15.59;59.70;101351.19;5116326;28;20020;-61
2022/05/12 00:54:41;;;;;;;6.47;1.90;;;;;;;15.51;59.96;101348.56;5116074;28;20024;-62
2022/05/12 00:57:10;;;;;;;4.93;2.30;;;;;;;15.44;60.25;101352.09;5097619;28;20027;-61
2022/05/12 00:59:36;;;;;;;4.95;2.00;;;;;;;15.44;60.20;101365.41;5115924;28;20110;-62
2022/05/12 01:02:07;;;;;;;6.32;2.10;;;;;;;15.46;60.36;101367.22;5115941;28;20019;-61
2022/05/12 01:04:33;;;;;;;5.82;2.10;;;;;;;15.34;60.30;101355.69;5115030;28;20035;-61
2022/05/12 01:06:59;;;;;;;3.80;1.90;;;;;;;15.32;60.28;101370.75;5115880;28;20035;-61
2022/05/12 01:09:26;;;;;;;5.97;2.00;;;;;;;15.38;60.07;101370.78;5115751;28;20051;-61
2022/05/12 01:11:52;;;;;;;4.38;1.77;;;;;;;15.23;60.40;101368.97;5115667;28;20478;-62
2022/05/12 01:14:18;;;;;;;7.45;2.08;;;;;;;15.16;60.54;101370.78;5115613;28;20055;-62
2022/05/12 01:16:57;;;;;;;4.32;1.80;;;;;;;15.11;60.48;101364.53;5115842;28;20111;-61
2022/05/12 01:19:32;;;;;;;4.65;1.80;;;;;;;15.19;60.36;101367.19;5115614;28;20031;-61
2022/05/12 01:21:58;;;;;;;7.20;2.00;;;;;;;15.13;60.41;101370.75;5115453;28;20039;-61
2022/05/12 01:24:31;;;;;;;3.25;1.73;;;;;;;15.21;60.27;101379.63;5115518;28;20027;-61
2022/05/12 01:26:56;;;;;;;3.80;1.77;;;;;;;15.16;60.32;101376.09;5115435;28;20070;-62
2022/05/12 01:29:22;;;;;;;4.30;1.83;;;;;;;15.13;59.90;101375.19;5115621;28;20415;-62
2022/05/12 01:31:47;;;;;;;3.42;1.70;;;;;;;15.13;60.13;101384.06;5115369;28;20369;-61
2022/05/12 01:34:13;;;;;;;4.00;2.10;;;;;;;15.10;60.29;101399.16;5115548;28;20015;-61
2022/05/12 01:36:39;;;;;;;5.90;1.88;;;;;;;14.99;60.44;101389.38;5115537;28;20023;-61
2022/05/12 01:39:06;;;;;;;5.25;1.90;;;;;;;14.93;61.17;101401.78;5115764;28;20486;-61
2022/05/12 01:41:32;;;;;;;5.95;1.95;;;;;;;14.80;61.56;101402.66;5116239;28;20090;-63
2022/05/12 01:44:00;;;;;;;9.27;2.55;;;;;;;14.75;61.59;101398.19;5116340;28;20080;-62
2022/05/12 01:46:26;;;;;;;7.55;2.17;;;;;;;14.73;61.56;101409.69;5115679;28;20028;-62
2022/05/12 01:48:51;;;;;;;5.38;2.10;;;;;;;14.69;61.64;101416.81;5115357;28;20024;-62
2022/05/12 01:51:17;;;;;;;9.00;2.20;;;;;;;14.65;62.08;101415.03;5115229;28;20026;-62
2022/05/12 01:53:42;;;;;;;6.65;2.20;;;;;;;14.69;61.72;101422.13;5115244;28;20019;-61
2022/05/12 01:56:08;;;;;;;5.72;2.05;;;;;;;14.65;62.06;101417.69;5114919;28;20400;-61
2022/05/12 01:58:34;;;;;;;6.47;2.22;;;;;;;14.64;62.22;101418.56;5114568;28;20047;-62
2022/05/12 02:01:00;;;;;;;6.22;2.30;;;;;;;14.56;62.12;101422.97;5115052;28;20038;-61
2022/05/12 02:03:25;;;;;;;10.88;2.40;;;;;;;14.49;62.71;101421.19;5114782;28;20019;-61
2022/05/12 02:05:50;;;;;;;8.77;2.35;;;;;;;14.47;62.70;101434.44;5114719;28;20027;-61
2022/05/12 02:08:17;;;;;;;10.18;2.50;;;;;;;14.41;62.82;101436.16;5114614;28;20020;-61
2022/05/12 02:10:47;;;;;;;7.75;2.33;;;;;;;14.32;63.14;101439.69;5114622;28;20068;-62
2022/05/12 02:13:14;;;;;;;8.85;2.60;;;;;;;14.14;63.87;101435.16;5114398;28;20051;-62
2022/05/12 02:15:41;;;;;;;11.18;2.42;;;;;;;14.08;64.48;101440.41;5114764;28;20088;-61
2022/05/12 02:18:07;;;;;;;9.82;2.70;;;;;;;14.13;64.37;101454.66;5114447;28;20024;-61
2022/05/12 02:20:36;;;;;;;5.97;2.40;;;;;;;14.01;64.63;101452.78;5096178;28;20035;-61
2022/05/12 02:23:01;;;;;;;10.52;2.58;;;;;;;13.99;64.36;101449.22;5114419;28;20392;-61
2022/05/12 02:25:26;;;;;;;7.93;2.60;;;;;;;14.07;64.34;101459.91;5114211;28;20030;-61
2022/05/12 02:27:52;;;;;;;15.43;3.10;;;;;;;14.04;64.60;101460.75;5114013;28;20069;-62
2022/05/12 02:30:24;;;;;;;13.27;2.65;;;;;;;13.94;65.29;101464.25;5114292;28;20031;-62
2022/05/12 02:32:49;;;;;;;13.13;2.80;;;;;;;13.91;65.13;101458.03;5114297;28;20027;-62
2022/05/12 02:35:15;;;;;;;6.55;2.63;;;;;;;13.82;65.90;101460.63;5114234;28;20034;-62
2022/05/12 02:37:40;;;;;;;10.40;2.70;;;;;;;13.75;66.08;101457.94;5114134;28;20089;-61
2022/05/12 02:40:08;;;;;;;9.90;2.90;;;;;;;13.72;65.82;101471.19;5114059;28;20381;-61
2022/05/12 02:42:33;;;;;;;9.48;2.97;;;;;;;13.75;66.00;101468.56;5113793;28;20088;-61
2022/05/12 02:44:59;;;;;;;8.48;2.78;;;;;;;13.70;65.99;101480.91;5113905;28;20411;-61
2022/05/12 02:47:24;;;;;;;11.02;3.00;;;;;;;13.72;65.89;101464.97;5114124;28;20033;-61
2022/05/12 02:49:49;;;;;;;10.00;2.80;;;;;;;13.62;66.37;101479.03;5113908;28;20019;-61
2022/05/12 02:52:15;;;;;;;9.73;2.88;;;;;;;13.51;66.69;101477.19;5114018;28;20024;-63
2022/05/12 02:54:40;;;;;;;8.77;2.88;;;;;;;13.55;66.80;101486.09;5095181;28;20062;-62
2022/05/12 02:57:06;;;;;;;11.82;3.00;;;;;;;13.36;67.20;101474.44;5113171;28;20019;-62
2022/05/12 02:59:32;;;;;;;8.35;2.90;;;;;;;13.50;67.11;101488.69;5113616;28;20081;-62
2022/05/12 03:01:58;;;;;;;9.13;2.80;;;;;;;13.46;67.01;101488.66;5113715;28;20365;-61
2022/05/12 03:04:24;;;;;;;12.57;2.85;;;;;;;13.40;66.95;101489.47;5113598;28;20029;-61
2022/05/12 03:06:51;;;;;;;10.02;2.88;;;;;;;13.38;67.19;101487.69;5113665;28;20055;-61
2022/05/12 03:09:16;;;;;;;10.98;2.90;;;;;;;13.30;67.42;101492.03;5113934;28;20023;-61
2022/05/12 03:11:42;;;;;;;10.80;3.00;;;;;;;13.30;67.20;101492.03;5113592;28;20080;-61
2022/05/12 03:14:07;;;;;;;10.85;2.80;;;;;;;13.32;67.31;101492.94;5113507;28;20062;-62
2022/05/12 03:16:34;;;;;;;8.45;3.00;;;;;;;13.34;67.23;101494.75;5113605;28;20031;-62
2022/05/12 03:18:59;;;;;;;10.88;3.20;;;;;;;13.25;67.71;101495.53;5113565;28;20027;-62
2022/05/12 03:21:26;;;;;;;8.48;3.20;;;;;;;13.20;67.57;101499.88;5113721;28;20077;-61
2022/05/12 03:23:52;;;;;;;12.05;3.42;;;;;;;13.22;67.70;101505.19;5095240;28;20031;-61
2022/05/12 03:26:17;;;;;;;10.45;3.63;;;;;;;13.22;67.78;101499.88;5113506;28;20023;-61
2022/05/12 03:28:42;;;;;;;7.43;3.13;;;;;;;13.25;68.02;101506.16;5117583;28;20381;-62
2022/05/12 03:31:08;;;;;;;10.57;3.30;;;;;;;13.21;68.32;101506.97;5118594;28;20027;-61
2022/05/12 03:33:35;;;;;;;10.55;3.45;;;;;;;13.20;68.43;101509.59;5118748;28;20023;-62
2022/05/12 03:36:00;;;;;;;11.88;3.75;;;;;;;13.14;68.57;101514.84;5118353;28;20130;-61
2022/05/12 03:38:28;;;;;;;13.50;3.63;;;;;;;13.09;69.40;101521.84;5117540;28;20516;-61
2022/05/12 03:40:53;;;;;;;11.35;3.72;;;;;;;13.07;69.16;101526.28;5117531;28;20046;-61
2022/05/12 03:46:06;;;;;;;11.85;4.10;;;;;;;13.00;69.42;101535.91;5117410;28;20080;-62
2022/05/12 03:48:34;;;;;;;12.90;4.05;;;;;;;13.02;69.89;101536.84;5117140;28;20079;-61
2022/05/12 03:50:59;;;;;;;11.77;4.80;;;;;;;12.91;70.46;101534.03;5116753;28;20035;-61
2022/05/12 03:53:25;;;;;;;14.32;4.70;;;;;;;12.86;70.68;101545.47;5098243;28;20030;-61
2022/05/12 03:55:51;;;;;;;16.27;5.30;;;;;;;12.80;71.30;101551.56;5116478;28;20050;-61
2022/05/12 03:58:16;;;;;;;14.13;5.10;;;;;;;12.86;70.76;101551.66;5116252;28;20544;-61
2022/05/12 04:00:41;;;;;;;17.38;5.20;;;;;;;12.84;70.97;101544.53;5116699;28;20023;-61
2022/05/12 04:03:07;;;;;;;17.70;5.15;;;;;;;12.84;71.01;101549.84;5116354;28;20028;-62
2022/05/12 04:05:32;;;;;;;20.33;5.45;;;;;;;12.79;71.33;101557.75;5116451;28;20120;-61
2022/05/12 04:07:58;;;;;;;15.35;5.50;;;;;;;12.78;71.61;101562.16;5116431;28;20384;-61
2022/05/12 04:10:25;;;;;;;13.80;5.15;;;;;;;12.85;71.27;101560.50;5116357;28;20020;-61
2022/05/12 04:12:51;;;;;;;16.73;6.38;;;;;;;12.84;71.45;101565.75;5116196;28;20487;-62
2022/05/12 04:15:17;;;;;;;13.70;5.78;;;;;;;12.84;71.70;101566.66;5116203;28;20362;-62
2022/05/12 04:17:43;;;;;;;18.30;6.13;;;;;;;12.86;71.65;101574.66;5116175;28;20027;-61
2022/05/12 04:20:12;;;;;;;18.17;6.78;;;;;;;12.84;71.78;101579.03;5116292;28;20028;-62
2022/05/12 04:22:40;;;;;;;17.77;6.07;;;;;;;12.79;72.66;101582.50;5097893;28;20134;-61
2022/05/12 04:25:06;;;;;;;16.58;6.82;;;;;;;12.76;73.00;101579.84;5116065;28;20457;-61
2022/05/12 04:27:35;;;;;;;16.33;6.47;;;;;;;12.82;72.28;101578.13;5115772;28;20027;-62
2022/05/12 04:30:00;;;;;;;21.42;7.28;;;;;;;12.84;72.49;101582.56;5115859;28;20361;-62
2022/05/12 04:32:25;;;;;;;16.52;7.38;;;;;;;12.83;72.64;101590.50;5115959;28;20042;-61
2022/05/12 04:37:35;;;;;;;19.52;8.07;;;;;;;12.92;72.78;101596.81;5116163;28;20491;-61
2022/05/12 04:40:22;;;;;;;21.88;7.97;;;;;;;12.87;72.66;101595.88;5114453;28;20059;-62
2022/05/12 04:42:49;;;;;;;19.83;8.73;;;;;;;12.79;74.17;101606.38;5116018;28;20031;-62
2022/05/12 04:45:16;;;;;;;20.50;8.60;;;;;;;12.84;74.08;101611.75;5115938;28;20031;-61
2022/05/12 04:47:42;;;;;;;24.75;9.77;;;;;;;12.89;74.15;101607.41;5115743;28;20028;-61
2022/05/12 04:50:15;;;;;;;24.23;9.98;;;;;;;12.98;74.65;101611.94;5115573;28;20503;-61
2022/05/12 04:52:41;;;;;;;24.55;10.00;;;;;;;13.04;74.42;101614.66;5115464;28;20362;-61
2022/05/12 04:55:07;;;;;;;24.63;9.90;;;;;;;13.13;74.45;101613.91;5115762;28;20049;-62
2022/05/12 04:57:41;;;;;;;23.25;10.00;;;;;;;13.19;74.27;101609.56;5115133;28;20048;-62
2022/05/12 05:00:10;;;;;;;19.33;10.02;;;;;;;13.33;74.29;101612.41;5115361;28;20024;-61
2022/05/12 05:02:35;;;;;;;28.10;10.57;;;;;;;13.40;74.06;101608.94;5115404;28;20047;-61
2022/05/12 05:05:01;;;;;;;24.67;11.38;;;;;;;13.48;74.14;101617.00;5115240;28;20054;-62
2022/05/12 05:07:26;;;;;;;23.33;11.48;;;;;;;13.62;74.12;101623.38;5115095;28;20019;-62
2022/05/12 05:09:52;;;;;;;33.78;11.50;;;;;;;13.74;73.80;101627.91;5096906;28;20027;-62
2022/05/12 05:12:18;;;;;;;25.73;11.60;;;;;;;13.84;73.36;101613.84;5115444;28;20028;-61
2022/05/12 05:14:43;;;;;;;26.23;11.07;;;;;;;13.96;73.33;101632.56;5115120;28;20473;-62
2022/05/12 05:17:09;;;;;;;28.75;12.13;;;;;;;14.06;73.29;101635.31;5115094;28;20027;-61
2022/05/12 05:19:35;;;;;;;23.85;11.75;;;;;;;14.09;73.31;101653.91;5115229;28;20059;-61
2022/05/12 05:22:01;;;;;;;23.02;11.65;;;;;;;14.10;73.48;101643.31;5115114;28;20476;-61
2022/05/12 05:24:26;;;;;;;22.25;11.10;;;;;;;14.18;73.04;101641.63;5115423;28;20241;-62
2022/05/12 05:26:52;;;;;;;28.23;12.18;;;;;;;14.26;73.16;101646.97;5115701;28;20068;-62
2022/05/12 05:29:17;;;;;;;27.77;11.80;;;;;;;14.32;73.29;101652.38;5115144;28;20024;-61
2022/05/12 05:31:42;;;;;;;23.80;11.70;;;;;;;14.42;72.49;101650.66;5114884;28;20176;-61
2022/05/12 05:34:09;;;;;;;26.30;12.20;;;;;;;14.55;72.69;101657.00;5115086;28;20028;-61
2022/05/12 05:36:35;;;;;;;26.80;12.80;;;;;;;14.69;72.65;101663.34;5115021;28;20096;-61
2022/05/12 05:39:01;;;;;;;28.50;13.52;;;;;;;14.73;72.63;101666.03;5114500;28;20464;-62
2022/05/12 05:41:26;;;;;;;24.55;12.68;;;;;;;14.88;71.68;101665.22;5114693;28;20076;-61
2022/05/12 05:43:52;;;;;;;25.38;12.70;;;;;;;14.90;71.15;101665.22;5114596;28;20460;-61
2022/05/12 05:46:17;;;;;;;25.42;12.70;;;;;;;15.06;71.22;101674.19;5114644;28;20082;-61
2022/05/12 05:48:50;;;;;;;28.73;13.23;;;;;;;15.15;71.30;101691.09;5114458;28;20038;-61
2022/05/12 05:53:59;;;;;;;22.30;12.48;;;;;;;15.34;70.70;101700.09;5115035;28;20415;-62
2022/05/12 05:56:24;;;;;;;22.27;12.27;;;;;;;15.48;70.38;101708.13;5114411;28;20028;-61
2022/05/12 05:58:50;;;;;;;26.08;12.38;;;;;;;15.61;69.42;101706.41;5114107;28;20445;-62
2022/05/12 06:01:17;;;;;;;25.63;12.40;;;;;;;15.70;69.22;101710.03;5114332;28;20030;-61
2022/05/12 06:03:43;;;;;;;29.20;12.48;;;;;;;15.61;69.24;101714.41;5114259;28;20036;-61
2022/05/12 06:06:08;;;;;;;25.30;12.05;;;;;;;15.72;69.14;101726.91;5113922;28;20027;-62
2022/05/12 06:08:33;;;;;;;25.63;12.20;;;;;;;15.74;69.12;101719.81;5114163;28;20019;-62
2022/05/12 06:11:04;;;;;;;25.02;11.63;;;;;;;15.92;68.42;101724.28;5113950;28;20077;-61
2022/05/12 06:13:29;;;;;;;25.95;12.55;;;;;;;16.08;68.27;101724.34;5114204;28;20123;-61
2022/05/12 06:15:55;;;;;;;22.00;12.25;;;;;;;16.23;68.15;101733.28;5113938;28;20224;-62
2022/05/12 06:18:20;;;;;;;21.50;11.52;;;;;;;16.30;67.04;101730.59;5113938;28;20023;-61
2022/05/12 06:20:47;;;;;;;25.17;12.15;;;;;;;16.36;66.58;101731.53;5113775;28;20028;-61
2022/05/12 06:23:14;;;;;;;22.98;11.85;;;;;;;16.49;66.49;101740.41;5113816;28;20062;-61
2022/05/12 06:25:39;;;;;;;24.10;12.45;;;;;;;16.55;65.95;101735.06;5113713;28;20084;-61
2022/05/12 06:28:06;;;;;;;21.48;11.90;;;;;;;16.74;65.24;101738.66;5113818;28;20035;-61
2022/05/12 06:30:32;;;;;;;30.10;12.73;;;;;;;16.75;65.10;101738.69;5113729;28;20020;-61
2022/05/12 06:32:58;;;;;;;22.58;12.50;;;;;;;16.87;64.60;101739.53;5113923;28;20023;-61
2022/05/12 06:35:25;;;;;;;23.60;11.55;;;;;;;16.96;64.12;101745.78;5113906;28;20027;-61
2022/05/12 06:37:51;;;;;;;27.90;11.48;;;;;;;17.10;63.91;101751.09;5113461;28;20027;-61
2022/05/12 06:40:18;;;;;;;20.02;11.25;;;;;;;17.26;63.35;101746.63;5113711;28;20395;-61
2022/05/12 06:42:44;;;;;;;27.40;11.77;;;;;;;17.35;63.20;101754.59;5113774;28;20120;-61
2022/05/12 06:45:12;;;;;;;23.40;11.45;;;;;;;17.48;62.46;101747.44;5113482;28;20472;-61
2022/05/12 06:47:37;;;;;;;24.02;11.65;;;;;;;17.56;61.94;101752.75;5113426;28;20480;-61
2022/05/12 06:50:04;;;;;;;23.90;11.45;;;;;;;17.66;61.53;101752.72;5113522;28;20020;-61
2022/05/12 06:52:30;;;;;;;23.30;11.48;;;;;;;17.84;61.12;101769.59;5095049;28;20122;-62
2022/05/12 06:54:56;;;;;;;24.13;10.52;;;;;;;17.98;59.99;101760.59;5113837;28;20439;-61
2022/05/12 06:57:28;;;;;;;21.50;10.75;;;;;;;18.15;58.96;101764.97;5113335;28;20043;-61
2022/05/12 06:59:55;;;;;;;17.98;10.57;;;;;;;18.11;58.26;101774.78;5113651;28;20107;-61
2022/05/12 07:02:22;;;;;;;22.90;10.80;;;;;;;17.98;59.44;101775.75;5112726;28;20023;-61
2022/05/12 07:04:48;;;;;;;19.58;10.45;;;;;;;17.98;59.50;101778.44;5113306;28;20035;-61
2022/05/12 07:07:14;;;;;;;18.00;10.52;;;;;;;17.81;58.83;101772.28;5113139;28;20023;-65
2022/05/12 07:09:39;;;;;;;25.70;11.30;;;;;;;17.70;58.88;101781.22;5113192;28;20487;-62
2022/05/12 07:12:05;;;;;;;24.50;12.55;;;;;;;17.77;59.27;101790.13;5113088;28;20028;-62
2022/05/12 07:14:31;;;;;;;23.80;11.82;;;;;;;18.04;58.49;101781.09;5113017;28;20031;-62
2022/05/12 07:16:57;;;;;;;22.67;11.88;;;;;;;18.36;57.85;101778.22;5113205;28;20050;-62
2022/05/12 07:19:22;;;;;;;18.35;10.68;;;;;;;18.48;56.08;101786.19;5113118;28;20111;-62
2022/05/12 07:27:17;;;;;;;15.80;9.73;;;;;;;18.77;53.74;101785.09;5113275;28;20035;-62
2022/05/12 07:29:43;;;;;;;17.15;9.02;;;;;;;18.82;52.69;101795.78;5112951;28;20023;-62
2022/05/12 07:32:08;;;;;;;16.27;9.27;;;;;;;19.10;51.26;101794.66;5112920;28;20078;-63
2022/05/12 07:34:34;;;;;;;23.02;10.15;;;;;;;19.16;52.19;101797.25;5112700;28;20441;-62
2022/05/12 07:37:00;;;;;;;20.00;10.20;;;;;;;19.25;51.97;101790.91;5112839;28;20080;-62
2022/05/12 07:39:28;;;;;;;15.57;9.50;;;;;;;19.47;51.23;101795.16;5112921;28;20024;-63
2022/05/12 07:41:56;;;;;;;17.42;9.55;;;;;;;19.85;51.08;101801.91;5112786;28;20023;-62
2022/05/12 07:44:22;;;;;;;14.07;9.10;;;;;;;20.13;48.12;101796.19;5112828;28;20023;-63
2022/05/12 07:46:48;;;;;;;16.98;9.52;;;;;;;20.06;48.66;101799.84;5112731;28;20032;-62
2022/05/12 07:49:14;;;;;;;16.48;9.43;;;;;;;19.94;48.60;101800.88;5112770;28;20020;-63
2022/05/12 07:51:40;;;;;;;15.80;8.15;;;;;;;19.72;47.92;101809.19;5112742;28;20055;-62
2022/05/12 07:54:05;;;;;;;15.23;8.27;;;;;;;19.33;48.74;101804.25;5112753;28;20114;-62
2022/05/12 07:56:31;;;;;;;14.63;7.18;;;;;;;19.18;49.00;101816.00;5112575;28;20429;-63
2022/05/12 07:58:58;;;;;;;14.88;8.25;;;;;;;18.99;49.83;101807.25;5112423;28;20483;-62
2022/05/12 08:01:25;;;;;;;21.70;7.70;;;;;;;19.35;48.49;101810.47;5112529;28;20063;-62
2022/05/12 08:03:51;;;;;;;13.18;7.57;;;;;;;19.76;48.46;101804.69;5112246;28;20092;-63
2022/05/12 08:06:17;;;;;;;12.18;7.15;;;;;;;20.09;47.20;101815.91;5112852;28;20031;-64
2022/05/12 08:08:46;;;;;;;12.05;7.55;;;;;;;20.34;47.15;101817.38;5112691;28;20020;-62
2022/05/12 08:11:13;;;;;;;14.80;6.88;;;;;;;20.20;44.68;101822.00;5112535;28;20404;-63
2022/05/12 08:13:38;;;;;;;14.48;7.07;;;;;;;19.89;45.40;101825.09;5114505;28;20441;-63
2022/05/12 08:16:04;;;;;;;13.32;5.97;;;;;;;19.84;45.26;101818.03;5116975;28;20034;-63
2022/05/12 08:18:32;;;;;;;11.45;6.25;;;;;;;19.95;45.18;101824.13;5116229;28;20111;-63
2022/05/12 08:20:58;;;;;;;17.08;6.43;;;;;;;20.25;45.10;101833.56;5116925;28;20110;-63
2022/05/12 08:23:24;;;;;;;10.45;6.13;;;;;;;20.30;43.39;101829.06;5117441;28;20492;-63
2022/05/12 08:25:50;;;;;;;10.50;7.15;;;;;;;20.40;44.05;101824.44;5116972;28;20031;-62
2022/05/12 08:28:18;;;;;;;13.10;6.70;;;;;;;20.75;43.65;101822.13;5117032;28;20043;-63
2022/05/12 08:30:46;;;;;;;14.48;6.43;;;;;;;20.94;42.81;101824.50;5116182;28;20024;-62
2022/05/12 08:33:12;;;;;;;13.30;6.07;;;;;;;21.27;41.55;101821.25;5115781;28;20472;-63
2022/05/12 08:35:39;;;;;;;13.10;5.47;;;;;;;21.45;39.61;101822.72;5097595;28;20388;-63
2022/05/12 08:38:06;;;;;;;9.63;5.60;;;;;;;21.73;40.21;101819.53;5115978;28;20055;-63
2022/05/12 08:41:09;;;;;;;14.57;6.38;;;;;;;22.21;40.52;101820.31;5116065;28;20023;-63
2022/05/12 08:43:43;;;;;;;14.73;6.35;;;;;;;22.11;39.52;101818.72;5115839;28;20042;-62
2022/05/12 08:46:14;;;;;;;23.38;7.22;;;;;;;22.50;39.41;101824.16;5115691;28;20035;-63
2022/05/12 08:48:43;;;;;;;11.63;5.07;;;;;;;22.65;37.12;101834.56;5097447;28;20089;-63
2022/05/12 08:51:15;;;;;;;10.80;5.47;;;;;;;22.69;37.51;101813.84;5115649;28;20035;-63
2022/05/12 08:53:48;;;;;;;12.40;5.80;;;;;;;22.82;36.83;101833.28;5115722;28;20461;-63
2022/05/12 08:56:13;;;;;;;12.75;5.30;;;;;;;22.11;36.60;101828.63;5115419;28;20373;-63
2022/05/12 08:58:42;;;;;;;9.52;5.05;;;;;;;22.44;36.49;101830.59;5115288;28;20109;-62
2022/05/12 09:01:17;;;;;;;11.25;5.18;;;;;;;22.77;36.59;101824.44;5115480;28;20377;-63
2022/05/12 09:04:20;;;;;;;14.88;4.20;;;;;;;23.07;35.07;101820.13;5115697;28;20107;-62
2022/05/12 09:07:17;;;;;;;;;;;;;;;23.28;37.33;101824.94;5115682;28;20032;-64
2022/05/12 09:10:05;;;;;;;8.10;3.08;;;;;;;22.74;32.92;101839.78;5070182;28;19919;-63
2022/05/12 09:12:49;;;;;;;8.35;3.70;;;;;;;22.81;34.24;101848.56;5115170;28;20059;-63
2022/05/12 09:15:34;;;;;;;8.18;3.25;;;;;;;22.85;33.49;101833.22;5115288;28;20051;-63
2022/05/12 09:18:10;;;;;;;10.40;3.60;;;;;;;23.02;32.02;101846.31;5115105;28;20027;-63
2022/05/12 09:20:36;;;;;;;7.93;3.35;;;;;;;23.11;32.47;101829.91;5115244;28;20027;-63
2022/05/12 09:23:03;;;;;;;6.60;3.20;;;;;;;23.28;32.51;101841.13;5097216;28;20028;-63
2022/05/12 09:25:37;;;;;;;10.75;4.07;;;;;;;23.39;31.76;101839.06;5114549;28;20028;-63
2022/05/12 09:28:34;;;;;;;11.55;3.75;;;;;;;23.71;33.20;101832.78;5114934;28;20027;-63
2022/05/12 09:31:17;;;;;;;9.80;4.45;;;;;;;23.94;31.03;101823.16;5115008;28;20544;-64
2022/05/12 09:33:44;;;;;;;;;;;;;;;24.19;33.16;101829.56;5115525;28;20031;-63
2022/05/12 09:36:16;;;;;;;17.70;4.40;;;;;;;24.36;32.06;101829.06;5114900;28;20288;-63
2022/05/12 09:38:45;;;;;;;8.77;3.78;;;;;;;24.65;31.41;101835.41;5114990;28;20023;-63
2022/05/12 09:41:21;;;;;;;11.32;3.70;;;;;;;24.99;31.81;101825.25;5114629;28;20030;-63
2022/05/12 09:43:50;;;;;;;12.07;4.20;;;;;;;24.79;31.78;101832.25;5114745;28;20024;-63
2022/05/12 09:46:29;;;;;;;12.70;3.90;;;;;;;24.83;31.66;101828.50;5114442;28;20157;-63
2022/05/12 09:49:16;;;;;;;10.60;3.40;;;;;;;24.52;31.87;101826.81;5114359;28;20034;-64
2022/05/12 09:51:41;;;;;;;8.88;3.50;;;;;;;24.15;29.64;101827.00;5114491;28;20076;-64
2022/05/12 09:54:23;;;;;;;8.55;3.55;;;;;;;23.73;30.41;101830.94;5114444;28;20106;-62
2022/05/12 09:57:15;;;;;;;;;;;;;;;23.81;31.83;101819.94;5114924;28;20465;-63
2022/05/12 09:59:43;;;;;;;6.75;3.47;;;;;;;23.85;29.63;101823.41;5089688;28;19923;-63
2022/05/12 10:08:24;;;;;;;7.85;3.20;;;;;;;24.69;30.55;101820.88;5094058;28;20047;-63
2022/05/12 10:10:53;;;;;;;;;;;;;;;24.69;30.79;101820.88;5073271;28;20032;-63
2022/05/12 10:13:37;;;;;;;7.88;2.90;;;;;;;24.06;29.97;101828.19;5093727;28;19930;-63
2022/05/12 10:16:04;;;;;;;6.10;2.65;;;;;;;23.53;28.11;101824.31;5093635;28;20454;-64
2022/05/12 10:18:40;;;;;;;8.93;2.90;;;;;;;23.21;29.01;101824.25;5093522;28;20106;-63
2022/05/12 10:21:26;;;;;;;8.88;2.80;;;;;;;23.05;30.63;101820.16;5093537;28;20024;-63
2022/05/12 10:24:32;;;;;;;7.97;3.00;;;;;;;23.33;31.17;101820.31;5093611;28;20039;-63
2022/05/12 10:27:14;;;;;;;8.13;3.17;;;;;;;23.80;29.05;101820.84;5093447;28;20054;-63
2022/05/12 10:29:53;;;;;;;6.25;2.80;;;;;;;24.12;28.49;101817.22;5093562;28;20035;-63
2022/05/12 10:32:51;;;;;;;9.80;2.95;;;;;;;24.07;29.01;101818.25;5093387;28;20038;-63
2022/05/12 10:35:23;;;;;;;5.35;2.70;;;;;;;23.74;27.87;101819.22;5093555;28;20103;-63
2022/05/12 10:37:53;;;;;;;8.68;3.17;;;;;;;23.60;29.36;101820.50;5092376;28;20031;-62
2022/05/12 10:40:30;;;;;;;8.20;3.35;;;;;;;23.21;30.40;101826.03;5093334;28;20028;-62
2022/05/12 10:43:08;;;;;;;7.75;3.50;;;;;;;22.62;31.51;101831.97;5093079;28;20542;-63
2022/05/12 10:45:49;;;;;;;7.50;3.33;;;;;;;22.23;31.77;101823.00;5092956;28;20115;-63
2022/05/12 10:48:45;;;;;;;9.30;3.60;;;;;;;22.10;32.31;101822.34;5093167;28;20020;-62
2022/05/12 10:51:41;;;;;;;7.85;3.15;;;;;;;22.13;32.40;101824.09;5093097;28;20040;-63
2022/05/12 10:54:18;;;;;;;9.70;3.30;;;;;;;22.34;31.13;101817.34;5092896;28;20032;-63
2022/05/12 10:56:51;;;;;;;7.22;3.30;;;;;;;22.47;31.13;101824.22;5091628;28;20422;-62
2022/05/12 10:59:51;;;;;;;8.90;3.40;;;;;;;22.44;30.77;101825.22;5110801;28;20119;-63
2022/05/12 11:02:25;;;;;;;8.95;3.40;;;;;;;22.34;30.41;101812.84;5113258;28;20038;-63
2022/05/12 11:05:09;;;;;;;6.97;2.97;;;;;;;22.53;31.29;101817.84;5113271;28;20038;-63
2022/05/12 11:07:50;;;;;;;6.30;2.95;;;;;;;22.64;31.46;101813.94;5113343;28;20046;-62
2022/05/12 11:10:34;;;;;;;9.82;2.80;;;;;;;22.96;31.37;101806.94;5113294;28;20094;-63
2022/05/12 11:13:08;;;;;;;9.80;2.88;;;;;;;23.46;30.15;101797.47;5113038;28;20089;-63
2022/05/12 11:15:54;;;;;;;5.82;2.80;;;;;;;24.01;29.94;101795.03;5113083;28;20024;-62
2022/05/12 11:18:46;;;;;;;7.85;3.00;;;;;;;24.15;28.69;101798.22;5113159;28;20035;-62
2022/05/12 11:21:18;;;;;;;9.38;3.10;;;;;;;24.01;29.24;101800.44;5101803;28;20048;-63
2022/05/12 11:23:50;;;;;;;10.25;3.58;;;;;;;24.27;28.78;101787.94;5113225;28;20020;-62
2022/05/12 11:26:34;;;;;;;7.53;3.72;;;;;;;24.15;28.19;101795.53;5112889;28;20027;-63
2022/05/12 11:32:18;;;;;;;5.57;3.05;;;;;;;24.14;29.01;101793.72;5113275;28;20045;-63
2022/05/12 11:34:54;;;;;;;7.53;2.65;;;;;;;24.20;28.21;101798.06;5112987;28;20040;-63
2022/05/12 11:37:38;;;;;;;6.10;2.95;;;;;;;24.38;27.95;101791.25;5113393;28;20027;-62
2022/05/12 11:40:33;;;;;;;6.25;2.90;;;;;;;24.49;27.47;101789.94;5114156;28;20024;-64
2022/05/12 11:45:48;;;;;;;7.55;2.92;;;;;;;25.09;26.54;101779.00;5114113;28;20573;-63
2022/05/12 11:48:49;;;;;;;9.32;3.33;;;;;;;25.41;26.39;101799.50;5114462;28;20096;-63
2022/05/12 11:51:30;;;;;;;5.43;3.05;;;;;;;25.08;25.23;101782.59;5034477;28;20041;-63
2022/05/12 11:54:01;;;;;;;6.93;3.00;;;;;;;25.05;24.82;101789.00;5034213;28;20061;-63
2022/05/12 11:56:44;;;;;;;9.63;3.30;;;;;;;25.16;26.24;101784.13;5034080;28;20115;-62